sensor_id;sensor_type;location;lat;lon;timestamp;temperature;humidity
18126;DHT22;53956;52.442;13.284;2022-10-31T00:01:19;18.00;99.90
18126;DHT22;53956;52.442;13.284;2022-10-31T00:03:46;18.00;99.90
18126;DHT22;53956;52.442;13.284;2022-10-31T00:06:13;18.00;99.90
18126;DHT22;53956;52.442;13.284;2022-10-31T00:08:40;17.90;99.90
18126;DHT22;53956;52.442;13.284;2022-10-31T00:11:08;17.80;99.90
18126;DHT22;53956;52.442;13.284;2022-10-31T00:13:35;17.80;99.90
18126;DHT22;53956;52.442;13.284;2022-10-31T00:16:02;17.80;99.90
18126;DHT22;53956;52.442;13.284;2022-10-31T00:18:30;17.80;99.90
18126;DHT22;53956;52.442;13.284;2022-10-31T00:21:00;17.80;99.90
18126;DHT22;53956;52.442;13.284;2022-10-31T00:23:26;17.70;99.90
18126;DHT22;53956;52.442;13.284;2022-10-31T00:25:53;17.90;99.90
18126;DHT22;53956;52.442;13.284;2022-10-31T00:28:19;17.80;99.90
18126;DHT22;53956;52.442;13.284;2022-10-31T00:30:46;17.80;99.90
18126;DHT22;53956;52.442;13.284;2022-10-31T00:33:13;17.80;99.90
18126;DHT22;53956;52.442;13.284;2022-10-31T00:35:41;17.80;99.90
18126;DHT22;53956;52.442;13.284;2022-10-31T00:38:07;17.80;99.90
18126;DHT22;53956;52.442;13.284;2022-10-31T00:40:34;17.80;99.90
18126;DHT22;53956;52.442;13.284;2022-10-31T00:43:01;17.80;99.90
18126;DHT22;53956;52.442;13.284;2022-10-31T00:45:27;17.80;99.90
18126;DHT22;53956;52.442;13.284;2022-10-31T00:47:54;17.80;99.90
18126;DHT22;53956;52.442;13.284;2022-10-31T00:50:21;17.70;99.90
18126;DHT22;53956;52.442;13.284;2022-10-31T00:52:49;17.70;99.90
18126;DHT22;53956;52.442;13.284;2022-10-31T00:55:16;17.60;99.90
18126;DHT22;53956;52.442;13.284;2022-10-31T00:57:42;17.60;99.90
18126;DHT22;53956;52.442;13.284;2022-10-31T01:00:12;17.50;99.90
18126;DHT22;53956;52.442;13.284;2022-10-31T01:02:40;17.60;99.90
18126;DHT22;53956;52.442;13.284;2022-10-31T01:05:07;17.60;99.90
18126;DHT22;53956;52.442;13.284;2022-10-31T01:07:35;17.50;99.90
18126;DHT22;53956;52.442;13.284;2022-10-31T01:10:04;17.50;99.90
18126;DHT22;53956;52.442;13.284;2022-10-31T01:12:36;17.40;99.90
18126;DHT22;53956;52.442;13.284;2022-10-31T01:15:03;17.50;99.90
18126;DHT22;53956;52.442;13.284;2022-10-31T01:17:30;17.40;99.90
18126;DHT22;53956;52.442;13.284;2022-10-31T01:19:57;17.40;99.90
18126;DHT22;53956;52.442;13.284;2022-10-31T01:22:26;17.40;99.90
18126;DHT22;53956;52.442;13.284;2022-10-31T01:24:53;17.50;99.90
18126;DHT22;53956;52.442;13.284;2022-10-31T01:27:21;17.40;99.90
18126;DHT22;53956;52.442;13.284;2022-10-31T01:29:47;17.40;99.90
18126;DHT22;53956;52.442;13.284;2022-10-31T01:32:14;17.40;99.90
18126;DHT22;53956;52.442;13.284;2022-10-31T01:34:41;17.50;99.90
18126;DHT22;53956;52.442;13.284;2022-10-31T01:37:08;17.40;99.90
18126;DHT22;53956;52.442;13.284;2022-10-31T01:39:34;17.40;99.90
18126;DHT22;53956;52.442;13.284;2022-10-31T01:42:01;17.40;99.90
18126;DHT22;53956;52.442;13.284;2022-10-31T01:44:52;17.40;99.90
18126;DHT22;53956;52.442;13.284;2022-10-31T01:47:25;17.40;99.90
18126;DHT22;53956;52.442;13.284;2022-10-31T01:49:56;17.30;99.90
18126;DHT22;53956;52.442;13.284;2022-10-31T01:52:26;17.30;99.90
18126;DHT22;53956;52.442;13.284;2022-10-31T01:54:58;17.30;99.90
18126;DHT22;53956;52.442;13.284;2022-10-31T01:57:26;17.30;99.90
18126;DHT22;53956;52.442;13.284;2022-10-31T01:59:58;17.30;99.90
18126;DHT22;53956;52.442;13.284;2022-10-31T02:02:27;17.30;99.90
18126;DHT22;53956;52.442;13.284;2022-10-31T02:04:54;17.30;99.90
18126;DHT22;53956;52.442;13.284;2022-10-31T02:07:24;17.30;99.90
18126;DHT22;53956;52.442;13.284;2022-10-31T02:09:53;17.30;99.90
18126;DHT22;53956;52.442;13.284;2022-10-31T02:12:20;17.30;99.90
18126;DHT22;53956;52.442;13.284;2022-10-31T02:14:46;17.30;99.90
18126;DHT22;53956;52.442;13.284;2022-10-31T02:17:15;17.20;99.90
18126;DHT22;53956;52.442;13.284;2022-10-31T02:19:49;17.30;99.90
18126;DHT22;53956;52.442;13.284;2022-10-31T02:22:25;17.30;99.90
18126;DHT22;53956;52.442;13.284;2022-10-31T02:25:02;17.20;99.90
18126;DHT22;53956;52.442;13.284;2022-10-31T02:27:48;17.20;99.90
18126;DHT22;53956;52.442;13.284;2022-10-31T02:30:20;17.20;99.90
18126;DHT22;53956;52.442;13.284;2022-10-31T02:32:55;17.20;99.90
18126;DHT22;53956;52.442;13.284;2022-10-31T02:35:50;17.10;99.90
18126;DHT22;53956;52.442;13.284;2022-10-31T02:38:30;17.20;99.90
18126;DHT22;53956;52.442;13.284;2022-10-31T02:41:06;17.10;99.90
18126;DHT22;53956;52.442;13.284;2022-10-31T02:43:56;17.00;99.90
18126;DHT22;53956;52.442;13.284;2022-10-31T02:46:32;17.10;99.90
18126;DHT22;53956;52.442;13.284;2022-10-31T02:49:06;17.10;99.90
18126;DHT22;53956;52.442;13.284;2022-10-31T02:51:34;17.00;99.90
18126;DHT22;53956;52.442;13.284;2022-10-31T02:54:03;17.00;99.90
18126;DHT22;53956;52.442;13.284;2022-10-31T02:56:30;17.00;99.90
18126;DHT22;53956;52.442;13.284;2022-10-31T02:58:59;17.00;99.90
18126;DHT22;53956;52.442;13.284;2022-10-31T03:01:44;17.00;99.90
18126;DHT22;53956;52.442;13.284;2022-10-31T03:04:32;17.00;99.90
18126;DHT22;53956;52.442;13.284;2022-10-31T03:07:10;17.00;99.90
18126;DHT22;53956;52.442;13.284;2022-10-31T03:09:47;17.00;99.90
18126;DHT22;53956;52.442;13.284;2022-10-31T03:12:24;17.00;99.90
18126;DHT22;53956;52.442;13.284;2022-10-31T03:14:56;16.90;99.90
18126;DHT22;53956;52.442;13.284;2022-10-31T03:17:32;16.90;99.90
18126;DHT22;53956;52.442;13.284;2022-10-31T03:20:03;16.90;99.90
18126;DHT22;53956;52.442;13.284;2022-10-31T03:22:32;16.80;99.90
18126;DHT22;53956;52.442;13.284;2022-10-31T03:25:01;16.80;99.90
18126;DHT22;53956;52.442;13.284;2022-10-31T03:27:32;16.80;99.90
18126;DHT22;53956;52.442;13.284;2022-10-31T03:30:03;16.90;99.90
18126;DHT22;53956;52.442;13.284;2022-10-31T03:32:40;16.80;99.90
18126;DHT22;53956;52.442;13.284;2022-10-31T03:35:10;16.80;99.90
18126;DHT22;53956;52.442;13.284;2022-10-31T03:37:39;16.80;99.90
18126;DHT22;53956;52.442;13.284;2022-10-31T03:40:12;16.80;99.90
18126;DHT22;53956;52.442;13.284;2022-10-31T03:42:44;16.70;99.90
18126;DHT22;53956;52.442;13.284;2022-10-31T03:45:14;16.80;99.90
18126;DHT22;53956;52.442;13.284;2022-10-31T03:47:44;16.70;99.90
18126;DHT22;53956;52.442;13.284;2022-10-31T03:50:14;16.70;99.90
18126;DHT22;53956;52.442;13.284;2022-10-31T03:52:44;16.70;99.90
18126;DHT22;53956;52.442;13.284;2022-10-31T03:55:20;16.60;99.90
18126;DHT22;53956;52.442;13.284;2022-10-31T03:57:52;16.60;99.90
18126;DHT22;53956;52.442;13.284;2022-10-31T04:00:22;16.60;99.90
18126;DHT22;53956;52.442;13.284;2022-10-31T04:02:57;16.60;99.90
18126;DHT22;53956;52.442;13.284;2022-10-31T04:05:29;16.60;99.90
18126;DHT22;53956;52.442;13.284;2022-10-31T04:08:01;16.60;99.90
18126;DHT22;53956;52.442;13.284;2022-10-31T04:10:33;16.60;99.90
18126;DHT22;53956;52.442;13.284;2022-10-31T04:13:03;16.70;99.90
18126;DHT22;53956;52.442;13.284;2022-10-31T04:15:43;16.60;99.90
18126;DHT22;53956;52.442;13.284;2022-10-31T04:18:11;16.60;99.90
18126;DHT22;53956;52.442;13.284;2022-10-31T04:20:40;16.50;99.90
18126;DHT22;53956;52.442;13.284;2022-10-31T04:23:16;16.50;99.90
18126;DHT22;53956;52.442;13.284;2022-10-31T04:25:43;16.50;99.90
18126;DHT22;53956;52.442;13.284;2022-10-31T04:28:11;16.60;99.90
18126;DHT22;53956;52.442;13.284;2022-10-31T04:30:37;16.60;99.90
18126;DHT22;53956;52.442;13.284;2022-10-31T04:33:04;16.60;99.90
18126;DHT22;53956;52.442;13.284;2022-10-31T04:35:31;16.60;99.90
18126;DHT22;53956;52.442;13.284;2022-10-31T04:37:59;16.60;99.90
18126;DHT22;53956;52.442;13.284;2022-10-31T04:40:25;16.50;99.90
18126;DHT22;53956;52.442;13.284;2022-10-31T04:43:18;16.50;99.90
18126;DHT22;53956;52.442;13.284;2022-10-31T04:45:45;16.50;99.90
18126;DHT22;53956;52.442;13.284;2022-10-31T04:48:13;16.50;99.90
18126;DHT22;53956;52.442;13.284;2022-10-31T04:50:43;16.50;99.90
18126;DHT22;53956;52.442;13.284;2022-10-31T04:53:12;16.40;99.90
18126;DHT22;53956;52.442;13.284;2022-10-31T04:55:59;16.50;99.90
18126;DHT22;53956;52.442;13.284;2022-10-31T04:58:33;16.50;99.90
18126;DHT22;53956;52.442;13.284;2022-10-31T05:00:59;16.50;99.90
18126;DHT22;53956;52.442;13.284;2022-10-31T05:03:26;16.50;99.90
18126;DHT22;53956;52.442;13.284;2022-10-31T05:05:53;16.50;99.90
18126;DHT22;53956;52.442;13.284;2022-10-31T05:08:21;16.50;99.90
18126;DHT22;53956;52.442;13.284;2022-10-31T05:10:50;16.60;99.90
18126;DHT22;53956;52.442;13.284;2022-10-31T05:13:17;16.50;99.90
18126;DHT22;53956;52.442;13.284;2022-10-31T05:16:10;16.60;99.90
18126;DHT22;53956;52.442;13.284;2022-10-31T05:18:56;16.60;99.90
18126;DHT22;53956;52.442;13.284;2022-10-31T05:21:41;16.60;99.90
18126;DHT22;53956;52.442;13.284;2022-10-31T05:24:09;16.60;99.90
18126;DHT22;53956;52.442;13.284;2022-10-31T05:26:38;16.60;99.90
18126;DHT22;53956;52.442;13.284;2022-10-31T05:29:05;16.70;99.90
18126;DHT22;53956;52.442;13.284;2022-10-31T05:31:31;16.80;99.90
18126;DHT22;53956;52.442;13.284;2022-10-31T05:34:02;16.60;99.90
18126;DHT22;53956;52.442;13.284;2022-10-31T05:36:59;16.60;99.90
18126;DHT22;53956;52.442;13.284;2022-10-31T05:39:27;16.70;99.90
18126;DHT22;53956;52.442;13.284;2022-10-31T05:41:59;16.60;99.90
18126;DHT22;53956;52.442;13.284;2022-10-31T05:44:26;16.60;99.90
18126;DHT22;53956;52.442;13.284;2022-10-31T05:47:06;16.60;99.90
18126;DHT22;53956;52.442;13.284;2022-10-31T05:49:53;16.60;99.90
18126;DHT22;53956;52.442;13.284;2022-10-31T05:52:38;16.70;99.90
18126;DHT22;53956;52.442;13.284;2022-10-31T05:55:17;16.70;99.90
18126;DHT22;53956;52.442;13.284;2022-10-31T05:57:58;16.60;99.90
18126;DHT22;53956;52.442;13.284;2022-10-31T06:00:25;16.70;99.90
18126;DHT22;53956;52.442;13.284;2022-10-31T06:02:58;16.60;99.90
18126;DHT22;53956;52.442;13.284;2022-10-31T06:05:35;16.60;99.90
18126;DHT22;53956;52.442;13.284;2022-10-31T06:08:02;16.80;99.90
18126;DHT22;53956;52.442;13.284;2022-10-31T06:10:30;16.80;99.90
18126;DHT22;53956;52.442;13.284;2022-10-31T06:12:57;16.80;99.90
18126;DHT22;53956;52.442;13.284;2022-10-31T06:15:42;16.80;99.90
18126;DHT22;53956;52.442;13.284;2022-10-31T06:18:08;16.80;99.90
18126;DHT22;53956;52.442;13.284;2022-10-31T06:20:45;16.70;99.90
18126;DHT22;53956;52.442;13.284;2022-10-31T06:23:12;16.80;99.90
18126;DHT22;53956;52.442;13.284;2022-10-31T06:25:42;16.80;99.90
18126;DHT22;53956;52.442;13.284;2022-10-31T06:28:11;16.80;99.90
18126;DHT22;53956;52.442;13.284;2022-10-31T06:30:48;16.80;99.90
18126;DHT22;53956;52.442;13.284;2022-10-31T06:33:17;16.80;99.90
18126;DHT22;53956;52.442;13.284;2022-10-31T06:35:54;16.90;99.90
18126;DHT22;53956;52.442;13.284;2022-10-31T06:38:21;16.90;99.90
18126;DHT22;53956;52.442;13.284;2022-10-31T06:40:49;16.90;99.90
18126;DHT22;53956;52.442;13.284;2022-10-31T06:43:21;17.00;99.90
18126;DHT22;53956;52.442;13.284;2022-10-31T06:45:52;17.00;99.90
18126;DHT22;53956;52.442;13.284;2022-10-31T06:48:42;17.10;99.90
18126;DHT22;53956;52.442;13.284;2022-10-31T06:51:20;17.00;99.90
18126;DHT22;53956;52.442;13.284;2022-10-31T06:53:49;16.90;99.90
18126;DHT22;53956;52.442;13.284;2022-10-31T06:56:18;17.00;99.90
18126;DHT22;53956;52.442;13.284;2022-10-31T06:58:49;17.00;99.90
18126;DHT22;53956;52.442;13.284;2022-10-31T07:01:20;17.00;99.90
18126;DHT22;53956;52.442;13.284;2022-10-31T07:03:47;17.00;99.90
18126;DHT22;53956;52.442;13.284;2022-10-31T07:06:13;17.10;99.90
18126;DHT22;53956;52.442;13.284;2022-10-31T07:08:41;17.20;99.90
18126;DHT22;53956;52.442;13.284;2022-10-31T07:11:07;17.20;99.90
18126;DHT22;53956;52.442;13.284;2022-10-31T07:13:35;17.20;99.90
18126;DHT22;53956;52.442;13.284;2022-10-31T07:16:06;17.30;99.90
18126;DHT22;53956;52.442;13.284;2022-10-31T07:18:35;17.30;99.90
18126;DHT22;53956;52.442;13.284;2022-10-31T07:21:02;17.40;99.90
18126;DHT22;53956;52.442;13.284;2022-10-31T07:23:28;17.50;99.90
18126;DHT22;53956;52.442;13.284;2022-10-31T07:26:22;17.30;99.90
18126;DHT22;53956;52.442;13.284;2022-10-31T07:28:49;17.40;99.90
18126;DHT22;53956;52.442;13.284;2022-10-31T07:31:20;17.60;99.90
18126;DHT22;53956;52.442;13.284;2022-10-31T07:33:47;17.60;99.90
18126;DHT22;53956;52.442;13.284;2022-10-31T07:36:33;17.60;99.90
18126;DHT22;53956;52.442;13.284;2022-10-31T07:39:03;17.60;99.90
18126;DHT22;53956;52.442;13.284;2022-10-31T07:41:32;17.70;99.90
18126;DHT22;53956;52.442;13.284;2022-10-31T07:44:00;17.70;99.90
18126;DHT22;53956;52.442;13.284;2022-10-31T07:47:02;17.90;99.90
18126;DHT22;53956;52.442;13.284;2022-10-31T07:50:09;17.80;99.90
18126;DHT22;53956;52.442;13.284;2022-10-31T07:52:58;18.00;99.90
18126;DHT22;53956;52.442;13.284;2022-10-31T07:55:44;18.00;99.90
18126;DHT22;53956;52.442;13.284;2022-10-31T07:58:13;18.20;99.90
18126;DHT22;53956;52.442;13.284;2022-10-31T08:00:45;17.90;99.90
18126;DHT22;53956;52.442;13.284;2022-10-31T08:03:16;18.00;99.90
18126;DHT22;53956;52.442;13.284;2022-10-31T08:06:02;18.10;99.90
18126;DHT22;53956;52.442;13.284;2022-10-31T08:08:51;18.00;99.90
18126;DHT22;53956;52.442;13.284;2022-10-31T08:11:19;18.10;99.90
18126;DHT22;53956;52.442;13.284;2022-10-31T08:13:47;18.10;99.90
18126;DHT22;53956;52.442;13.284;2022-10-31T08:16:15;17.90;99.90
18126;DHT22;53956;52.442;13.284;2022-10-31T08:18:50;18.00;99.90
18126;DHT22;53956;52.442;13.284;2022-10-31T08:21:18;18.00;99.90
18126;DHT22;53956;52.442;13.284;2022-10-31T08:23:46;18.00;99.90
18126;DHT22;53956;52.442;13.284;2022-10-31T08:26:14;18.10;99.90
18126;DHT22;53956;52.442;13.284;2022-10-31T08:28:42;18.00;99.90
18126;DHT22;53956;52.442;13.284;2022-10-31T08:31:09;18.10;99.90
18126;DHT22;53956;52.442;13.284;2022-10-31T08:33:40;18.00;99.90
18126;DHT22;53956;52.442;13.284;2022-10-31T08:36:18;17.90;99.90
18126;DHT22;53956;52.442;13.284;2022-10-31T08:39:08;18.10;99.90
18126;DHT22;53956;52.442;13.284;2022-10-31T08:41:35;18.00;99.90
18126;DHT22;53956;52.442;13.284;2022-10-31T08:44:01;18.00;99.90
18126;DHT22;53956;52.442;13.284;2022-10-31T08:46:28;18.10;99.90
18126;DHT22;53956;52.442;13.284;2022-10-31T08:48:56;18.20;99.90
18126;DHT22;53956;52.442;13.284;2022-10-31T08:51:23;18.00;99.90
18126;DHT22;53956;52.442;13.284;2022-10-31T08:53:52;18.10;99.90
18126;DHT22;53956;52.442;13.284;2022-10-31T08:56:34;18.00;99.90
18126;DHT22;53956;52.442;13.284;2022-10-31T08:59:07;18.20;99.90
18126;DHT22;53956;52.442;13.284;2022-10-31T09:01:54;18.20;99.90
18126;DHT22;53956;52.442;13.284;2022-10-31T09:04:22;18.20;99.90
18126;DHT22;53956;52.442;13.284;2022-10-31T09:06:49;18.30;99.90
18126;DHT22;53956;52.442;13.284;2022-10-31T09:09:15;18.10;99.90
18126;DHT22;53956;52.442;13.284;2022-10-31T09:11:42;18.30;99.90
18126;DHT22;53956;52.442;13.284;2022-10-31T09:14:09;18.30;99.90
18126;DHT22;53956;52.442;13.284;2022-10-31T09:16:42;18.20;99.90
18126;DHT22;53956;52.442;13.284;2022-10-31T09:19:15;18.10;99.90
18126;DHT22;53956;52.442;13.284;2022-10-31T09:21:46;18.10;99.90
18126;DHT22;53956;52.442;13.284;2022-10-31T09:24:13;18.20;99.90
18126;DHT22;53956;52.442;13.284;2022-10-31T09:26:41;18.20;99.90
18126;DHT22;53956;52.442;13.284;2022-10-31T09:29:26;18.10;99.90
18126;DHT22;53956;52.442;13.284;2022-10-31T09:31:57;18.10;99.90
18126;DHT22;53956;52.442;13.284;2022-10-31T09:34:28;18.10;99.90
18126;DHT22;53956;52.442;13.284;2022-10-31T09:37:09;18.20;99.90
18126;DHT22;53956;52.442;13.284;2022-10-31T09:39:36;18.30;99.90
18126;DHT22;53956;52.442;13.284;2022-10-31T09:42:31;18.20;99.90
18126;DHT22;53956;52.442;13.284;2022-10-31T09:45:07;18.20;99.90
18126;DHT22;53956;52.442;13.284;2022-10-31T09:47:45;18.20;99.90
18126;DHT22;53956;52.442;13.284;2022-10-31T09:50:36;18.30;99.90
18126;DHT22;53956;52.442;13.284;2022-10-31T09:53:30;18.30;99.90
18126;DHT22;53956;52.442;13.284;2022-10-31T09:55:59;18.40;99.90
18126;DHT22;53956;52.442;13.284;2022-10-31T09:58:28;18.30;99.90
18126;DHT22;53956;52.442;13.284;2022-10-31T10:00:58;18.30;99.90
18126;DHT22;53956;52.442;13.284;2022-10-31T10:03:31;18.40;99.90
18126;DHT22;53956;52.442;13.284;2022-10-31T10:06:12;18.60;99.90
18126;DHT22;53956;52.442;13.284;2022-10-31T10:09:05;18.60;99.90
18126;DHT22;53956;52.442;13.284;2022-10-31T10:12:08;18.70;99.90
18126;DHT22;53956;52.442;13.284;2022-10-31T10:14:46;18.70;99.90
18126;DHT22;53956;52.442;13.284;2022-10-31T10:17:31;18.80;99.90
18126;DHT22;53956;52.442;13.284;2022-10-31T10:20:23;18.60;99.90
18126;DHT22;53956;52.442;13.284;2022-10-31T10:22:59;18.80;99.90
18126;DHT22;53956;52.442;13.284;2022-10-31T10:25:34;18.80;99.90
18126;DHT22;53956;52.442;13.284;2022-10-31T10:28:12;18.80;99.90
18126;DHT22;53956;52.442;13.284;2022-10-31T10:30:43;18.80;99.90
18126;DHT22;53956;52.442;13.284;2022-10-31T10:33:13;18.90;99.90
18126;DHT22;53956;52.442;13.284;2022-10-31T10:35:43;18.90;99.90
18126;DHT22;53956;52.442;13.284;2022-10-31T10:38:15;18.90;99.90
18126;DHT22;53956;52.442;13.284;2022-10-31T10:40:45;19.00;99.90
18126;DHT22;53956;52.442;13.284;2022-10-31T10:43:20;19.20;99.90
18126;DHT22;53956;52.442;13.284;2022-10-31T10:45:56;19.10;99.90
18126;DHT22;53956;52.442;13.284;2022-10-31T10:48:43;19.20;99.90
18126;DHT22;53956;52.442;13.284;2022-10-31T10:51:20;19.10;99.90
18126;DHT22;53956;52.442;13.284;2022-10-31T10:53:59;19.20;99.90
18126;DHT22;53956;52.442;13.284;2022-10-31T10:56:39;19.20;99.90
18126;DHT22;53956;52.442;13.284;2022-10-31T10:59:10;19.30;99.90
18126;DHT22;53956;52.442;13.284;2022-10-31T11:01:38;19.30;99.90
18126;DHT22;53956;52.442;13.284;2022-10-31T11:04:20;19.40;99.90
18126;DHT22;53956;52.442;13.284;2022-10-31T11:06:56;19.50;99.90
18126;DHT22;53956;52.442;13.284;2022-10-31T11:09:23;19.50;99.90
18126;DHT22;53956;52.442;13.284;2022-10-31T11:11:51;19.60;99.90
18126;DHT22;53956;52.442;13.284;2022-10-31T11:14:18;19.60;99.90
18126;DHT22;53956;52.442;13.284;2022-10-31T11:16:48;19.60;99.90
18126;DHT22;53956;52.442;13.284;2022-10-31T11:19:18;19.50;99.90
18126;DHT22;53956;52.442;13.284;2022-10-31T11:21:47;19.60;99.90
18126;DHT22;53956;52.442;13.284;2022-10-31T11:24:16;19.70;99.90
18126;DHT22;53956;52.442;13.284;2022-10-31T11:26:45;19.80;99.90
18126;DHT22;53956;52.442;13.284;2022-10-31T11:29:16;19.80;99.90
18126;DHT22;53956;52.442;13.284;2022-10-31T11:31:45;19.80;99.90
18126;DHT22;53956;52.442;13.284;2022-10-31T11:34:22;19.80;99.90
18126;DHT22;53956;52.442;13.284;2022-10-31T11:36:52;19.90;99.90
18126;DHT22;53956;52.442;13.284;2022-10-31T11:39:21;19.80;99.90
18126;DHT22;53956;52.442;13.284;2022-10-31T11:41:49;19.90;99.90
18126;DHT22;53956;52.442;13.284;2022-10-31T11:44:19;19.80;99.90
18126;DHT22;53956;52.442;13.284;2022-10-31T11:46:49;19.90;99.90
18126;DHT22;53956;52.442;13.284;2022-10-31T11:49:19;20.00;99.90
18126;DHT22;53956;52.442;13.284;2022-10-31T11:51:49;20.00;99.90
18126;DHT22;53956;52.442;13.284;2022-10-31T11:54:21;20.00;99.90
18126;DHT22;53956;52.442;13.284;2022-10-31T11:56:49;19.90;99.90
18126;DHT22;53956;52.442;13.284;2022-10-31T11:59:22;20.00;99.90
18126;DHT22;53956;52.442;13.284;2022-10-31T12:01:51;20.00;99.90
18126;DHT22;53956;52.442;13.284;2022-10-31T12:04:22;19.90;99.90
18126;DHT22;53956;52.442;13.284;2022-10-31T12:06:50;20.00;99.90
18126;DHT22;53956;52.442;13.284;2022-10-31T12:09:20;20.00;99.90
18126;DHT22;53956;52.442;13.284;2022-10-31T12:11:57;19.90;99.90
18126;DHT22;53956;52.442;13.284;2022-10-31T12:14:35;20.00;99.90
18126;DHT22;53956;52.442;13.284;2022-10-31T12:17:10;19.90;99.90
18126;DHT22;53956;52.442;13.284;2022-10-31T12:19:42;20.00;99.90
18126;DHT22;53956;52.442;13.284;2022-10-31T12:22:16;20.00;99.90
18126;DHT22;53956;52.442;13.284;2022-10-31T12:25:02;20.00;99.90
18126;DHT22;53956;52.442;13.284;2022-10-31T12:27:49;20.10;99.90
18126;DHT22;53956;52.442;13.284;2022-10-31T12:30:23;20.00;99.90
18126;DHT22;53956;52.442;13.284;2022-10-31T12:33:13;20.20;99.90
18126;DHT22;53956;52.442;13.284;2022-10-31T12:35:51;20.10;99.90
18126;DHT22;53956;52.442;13.284;2022-10-31T12:38:34;20.10;99.90
18126;DHT22;53956;52.442;13.284;2022-10-31T12:41:16;20.10;99.90
18126;DHT22;53956;52.442;13.284;2022-10-31T12:43:46;20.10;99.90
18126;DHT22;53956;52.442;13.284;2022-10-31T12:46:24;20.20;99.90
18126;DHT22;53956;52.442;13.284;2022-10-31T12:49:25;20.10;99.90
18126;DHT22;53956;52.442;13.284;2022-10-31T12:52:03;20.20;99.90
18126;DHT22;53956;52.442;13.284;2022-10-31T12:54:43;20.20;99.90
18126;DHT22;53956;52.442;13.284;2022-10-31T12:57:22;20.10;99.90
18126;DHT22;53956;52.442;13.284;2022-10-31T12:59:53;20.20;99.90
18126;DHT22;53956;52.442;13.284;2022-10-31T13:02:24;20.20;99.90
18126;DHT22;53956;52.442;13.284;2022-10-31T13:04:54;20.20;99.90
18126;DHT22;53956;52.442;13.284;2022-10-31T13:07:25;20.20;99.90
18126;DHT22;53956;52.442;13.284;2022-10-31T13:10:00;20.20;99.90
18126;DHT22;53956;52.442;13.284;2022-10-31T13:12:29;20.20;99.90
18126;DHT22;53956;52.442;13.284;2022-10-31T13:14:59;20.30;99.90
18126;DHT22;53956;52.442;13.284;2022-10-31T13:17:31;20.20;99.90
18126;DHT22;53956;52.442;13.284;2022-10-31T13:20:12;20.20;99.90
18126;DHT22;53956;52.442;13.284;2022-10-31T13:22:43;20.20;99.90
18126;DHT22;53956;52.442;13.284;2022-10-31T13:25:14;20.30;99.90
18126;DHT22;53956;52.442;13.284;2022-10-31T13:27:47;20.20;99.90
18126;DHT22;53956;52.442;13.284;2022-10-31T13:30:17;20.20;99.90
18126;DHT22;53956;52.442;13.284;2022-10-31T13:32:49;20.10;99.90
18126;DHT22;53956;52.442;13.284;2022-10-31T13:35:22;20.10;99.90
18126;DHT22;53956;52.442;13.284;2022-10-31T13:37:54;20.10;99.90
18126;DHT22;53956;52.442;13.284;2022-10-31T13:40:32;20.20;99.90
18126;DHT22;53956;52.442;13.284;2022-10-31T13:43:06;20.20;99.90
18126;DHT22;53956;52.442;13.284;2022-10-31T13:45:35;20.10;99.90
18126;DHT22;53956;52.442;13.284;2022-10-31T13:48:28;20.10;99.90
18126;DHT22;53956;52.442;13.284;2022-10-31T13:51:00;20.00;99.90
18126;DHT22;53956;52.442;13.284;2022-10-31T13:53:40;20.00;99.90
18126;DHT22;53956;52.442;13.284;2022-10-31T13:56:16;20.10;99.90
18126;DHT22;53956;52.442;13.284;2022-10-31T13:58:58;20.00;99.90
18126;DHT22;53956;52.442;13.284;2022-10-31T14:01:26;19.90;99.90
18126;DHT22;53956;52.442;13.284;2022-10-31T14:04:02;19.90;99.90
18126;DHT22;53956;52.442;13.284;2022-10-31T14:06:38;19.90;99.90
18126;DHT22;53956;52.442;13.284;2022-10-31T14:09:20;19.90;99.90
18126;DHT22;53956;52.442;13.284;2022-10-31T14:11:49;19.80;99.90
18126;DHT22;53956;52.442;13.284;2022-10-31T14:14:17;19.80;99.90
18126;DHT22;53956;52.442;13.284;2022-10-31T14:16:46;19.80;99.90
18126;DHT22;53956;52.442;13.284;2022-10-31T14:19:21;19.80;99.90
18126;DHT22;53956;52.442;13.284;2022-10-31T14:21:49;19.70;99.90
18126;DHT22;53956;52.442;13.284;2022-10-31T14:24:31;19.60;99.90
18126;DHT22;53956;52.442;13.284;2022-10-31T14:27:00;19.60;99.90
18126;DHT22;53956;52.442;13.284;2022-10-31T14:29:28;19.60;99.90
18126;DHT22;53956;52.442;13.284;2022-10-31T14:32:02;19.50;99.90
18126;DHT22;53956;52.442;13.284;2022-10-31T14:34:36;19.40;99.90
18126;DHT22;53956;52.442;13.284;2022-10-31T14:37:22;19.40;99.90
18126;DHT22;53956;52.442;13.284;2022-10-31T14:40:07;19.20;99.90
18126;DHT22;53956;52.442;13.284;2022-10-31T14:42:49;19.30;99.90
18126;DHT22;53956;52.442;13.284;2022-10-31T14:45:41;19.20;99.90
18126;DHT22;53956;52.442;13.284;2022-10-31T14:48:24;19.20;99.90
18126;DHT22;53956;52.442;13.284;2022-10-31T14:50:58;19.10;99.90
18126;DHT22;53956;52.442;13.284;2022-10-31T14:53:28;19.10;99.90
18126;DHT22;53956;52.442;13.284;2022-10-31T14:55:56;19.10;99.90
18126;DHT22;53956;52.442;13.284;2022-10-31T14:58:38;19.00;99.90
18126;DHT22;53956;52.442;13.284;2022-10-31T15:01:06;18.90;99.90
18126;DHT22;53956;52.442;13.284;2022-10-31T15:03:36;18.90;99.90
18126;DHT22;53956;52.442;13.284;2022-10-31T15:06:13;18.90;99.90
18126;DHT22;53956;52.442;13.284;2022-10-31T15:08:45;18.90;99.90
18126;DHT22;53956;52.442;13.284;2022-10-31T15:11:13;18.80;99.90
18126;DHT22;53956;52.442;13.284;2022-10-31T15:13:47;18.80;99.90
18126;DHT22;53956;52.442;13.284;2022-10-31T15:16:16;18.80;99.90
18126;DHT22;53956;52.442;13.284;2022-10-31T15:18:51;18.60;99.90
18126;DHT22;53956;52.442;13.284;2022-10-31T15:21:21;18.60;99.90
18126;DHT22;53956;52.442;13.284;2022-10-31T15:23:50;18.60;99.90
18126;DHT22;53956;52.442;13.284;2022-10-31T15:26:19;18.60;99.90
18126;DHT22;53956;52.442;13.284;2022-10-31T15:28:57;18.60;99.90
18126;DHT22;53956;52.442;13.284;2022-10-31T15:31:25;18.50;99.90
18126;DHT22;53956;52.442;13.284;2022-10-31T15:33:53;18.50;99.90
18126;DHT22;53956;52.442;13.284;2022-10-31T15:36:24;18.50;99.90
18126;DHT22;53956;52.442;13.284;2022-10-31T15:38:51;18.30;99.90
18126;DHT22;53956;52.442;13.284;2022-10-31T15:41:24;18.40;99.90
18126;DHT22;53956;52.442;13.284;2022-10-31T15:43:54;18.40;99.90
18126;DHT22;53956;52.442;13.284;2022-10-31T15:46:22;18.40;99.90
18126;DHT22;53956;52.442;13.284;2022-10-31T15:48:49;18.50;99.90
18126;DHT22;53956;52.442;13.284;2022-10-31T15:51:16;18.40;99.90